createdAt,value
2022-10-06T00:02:37.934Z,11.73
2022-10-06T00:05:40.889Z,10.40
2022-10-06T00:08:45.786Z,14.25
2022-10-06T00:11:48.190Z,12.40
2022-10-06T00:14:50.474Z,12.60
2022-10-06T00:17:52.980Z,10.67
2022-10-06T00:20:59.749Z,14.20
2022-10-06T00:24:02.164Z,9.80
2022-10-06T00:27:04.435Z,11.75
2022-10-06T00:30:12.241Z,9.60
2022-10-06T00:33:16.213Z,11.17
2022-10-06T00:36:19.135Z,12.77
2022-10-06T00:39:21.483Z,11.93
2022-10-06T00:42:33.324Z,10.57
2022-10-06T00:45:38.530Z,14.50
2022-10-06T00:48:41.037Z,11.63
2022-10-06T00:51:50.195Z,12.15
2022-10-06T00:54:52.605Z,10.98
2022-10-06T00:57:54.922Z,11.50
2022-10-06T01:00:57.969Z,9.88
2022-10-06T01:04:06.807Z,10.63
2022-10-06T01:07:10.093Z,11.73
2022-10-06T01:10:12.417Z,14.40
2022-10-06T01:13:15.106Z,13.23
2022-10-06T01:16:22.648Z,17.25
2022-10-06T01:19:54.553Z,14.93
2022-10-06T01:23:05.313Z,13.93
2022-10-06T01:26:10.732Z,13.00
2022-10-06T01:29:13.408Z,13.95
2022-10-06T01:32:16.010Z,11.20
2022-10-06T01:35:18.467Z,11.73
2022-10-06T01:38:22.019Z,11.55
2022-10-06T01:41:27.901Z,11.82
2022-10-06T01:44:30.521Z,12.07
2022-10-06T01:47:34.485Z,11.85
2022-10-06T01:50:36.705Z,10.37
2022-10-06T01:53:39.041Z,10.45
2022-10-06T01:56:41.338Z,12.50
2022-10-06T01:59:43.660Z,11.63
2022-10-06T02:02:46.022Z,10.90
2022-10-06T02:05:48.334Z,9.47
2022-10-06T02:08:50.780Z,10.38
2022-10-06T02:11:53.554Z,9.18
2022-10-06T02:14:56.106Z,9.98
2022-10-06T02:17:58.418Z,12.65
2022-10-06T02:21:03.115Z,12.07
2022-10-06T02:24:05.573Z,12.63
2022-10-06T02:27:08.186Z,10.90
2022-10-06T02:30:12.029Z,11.82
2022-10-06T02:33:15.003Z,12.48
2022-10-06T02:36:17.753Z,14.73
2022-10-06T02:39:20.298Z,11.27
2022-10-06T02:42:22.720Z,14.57
2022-10-06T02:45:24.991Z,10.77
2022-10-06T02:48:28.933Z,13.82
2022-10-06T02:51:32.773Z,15.20
2022-10-06T02:54:36.778Z,12.88
2022-10-06T02:57:39.461Z,9.98
2022-10-06T03:00:42.551Z,13.13
2022-10-06T03:03:46.792Z,9.68
2022-10-06T03:06:49.505Z,9.37
2022-10-06T03:09:55.359Z,13.23
2022-10-06T03:12:59.996Z,16.58
2022-10-06T03:16:03.773Z,11.00
2022-10-06T03:19:07.541Z,15.35
2022-10-06T03:22:10.715Z,10.03
2022-10-06T03:25:26.078Z,12.05
2022-10-06T03:28:28.879Z,14.13
2022-10-06T03:31:31.954Z,12.02
2022-10-06T03:34:34.541Z,15.38
2022-10-06T03:37:39.809Z,12.17
2022-10-06T03:40:42.488Z,11.63
2022-10-06T03:43:46.048Z,12.63
2022-10-06T03:46:49.189Z,14.05
2022-10-06T03:49:51.636Z,12.40
2022-10-06T03:52:53.975Z,12.60
2022-10-06T03:56:06.278Z,13.05
2022-10-06T03:59:11.314Z,12.43
2022-10-06T04:02:16.156Z,16.63
2022-10-06T04:05:18.826Z,17.45
2022-10-06T04:08:21.128Z,14.50
2022-10-06T04:11:25.533Z,17.00
2022-10-06T04:14:28.061Z,19.05
2022-10-06T04:17:31.175Z,22.27
2022-10-06T04:20:33.910Z,21.83
2022-10-06T04:23:39.064Z,20.77
2022-10-06T04:26:45.458Z,23.83
2022-10-06T04:29:48.193Z,18.15
2022-10-06T04:32:51.261Z,17.15
2022-10-06T04:36:05.503Z,20.25
2022-10-06T04:39:10.343Z,20.73
2022-10-06T04:42:12.998Z,21.85
2022-10-06T04:45:15.765Z,19.17
2022-10-06T04:48:18.888Z,22.13
2022-10-06T04:51:23.294Z,19.98
2022-10-06T04:54:28.881Z,18.77
2022-10-06T04:57:34.912Z,17.25
2022-10-06T05:00:37.774Z,19.63
2022-10-06T05:03:40.305Z,19.95
2022-10-06T05:06:42.991Z,18.33
2022-10-06T05:09:46.768Z,21.47
2022-10-06T05:12:49.076Z,15.98
2022-10-06T05:15:59.351Z,15.43
2022-10-06T05:19:03.665Z,16.33
2022-10-06T05:22:06.632Z,22.42
2022-10-06T05:25:10.398Z,18.53
2022-10-06T05:28:12.772Z,25.85
2022-10-06T05:31:19.852Z,26.75
2022-10-06T05:34:22.399Z,20.08
2022-10-06T05:37:25.664Z,23.23
2022-10-06T05:40:28.510Z,21.73
2022-10-06T05:43:31.650Z,21.50
2022-10-06T05:46:34.885Z,20.90
2022-10-06T05:49:37.228Z,22.10
2022-10-06T05:52:40.537Z,26.10
2022-10-06T05:55:43.535Z,29.60
2022-10-06T05:58:51.883Z,19.05
2022-10-06T06:01:55.154Z,18.95
2022-10-06T06:05:07.648Z,21.77
2022-10-06T06:08:11.005Z,22.63
2022-10-06T06:11:13.915Z,19.07
2022-10-06T06:14:18.437Z,23.20
2022-10-06T06:17:21.393Z,18.55
2022-10-06T06:20:23.781Z,20.63
2022-10-06T06:23:33.422Z,15.52
2022-10-06T06:26:37.342Z,22.80
2022-10-06T06:29:40.244Z,15.23
2022-10-06T06:32:43.131Z,24.60
2022-10-06T06:35:45.572Z,22.75
2022-10-06T06:38:51.825Z,17.70
2022-10-06T06:41:54.822Z,17.63
2022-10-06T06:45:23.436Z,16.17
2022-10-06T06:48:38.636Z,22.92
2022-10-06T06:51:43.073Z,17.63
2022-10-06T06:54:49.100Z,21.08
2022-10-06T06:57:53.092Z,23.77
2022-10-06T07:00:55.482Z,22.70
2022-10-06T07:04:01.138Z,20.35
2022-10-06T07:07:07.727Z,23.85
2022-10-06T07:10:12.240Z,18.95
2022-10-06T07:13:17.438Z,20.20
2022-10-06T07:16:41.285Z,20.63
2022-10-06T07:20:02.250Z,20.70
2022-10-06T07:23:29.059Z,18.88
2022-10-06T07:26:32.359Z,27.85
2022-10-06T07:29:35.262Z,21.97
2022-10-06T07:32:38.207Z,25.58
2022-10-06T07:35:40.568Z,20.70
2022-10-06T07:38:43.079Z,21.35
2022-10-06T07:41:45.546Z,18.92
2022-10-06T07:45:07.450Z,16.50
2022-10-06T07:48:19.748Z,23.13
2022-10-06T07:51:28.421Z,16.55
2022-10-06T07:54:34.172Z,21.33
2022-10-06T07:58:21.262Z,20.00
2022-10-06T08:01:26.472Z,21.93
2022-10-06T08:04:28.838Z,25.35
2022-10-06T08:07:31.161Z,22.80
2022-10-06T08:10:33.469Z,19.90
2022-10-06T08:13:38.881Z,21.48
2022-10-06T08:16:41.190Z,22.80
2022-10-06T08:19:43.508Z,20.35
2022-10-06T08:22:47.728Z,23.95
2022-10-06T08:25:54.395Z,20.55
2022-10-06T08:29:03.445Z,26.10
2022-10-06T08:32:09.438Z,23.97
2022-10-06T08:35:11.807Z,22.98
2022-10-06T08:38:14.804Z,23.45
2022-10-06T08:41:23.280Z,24.15
2022-10-06T08:44:40.659Z,21.42
2022-10-06T08:48:04.393Z,20.00
2022-10-06T08:51:19.793Z,22.35
2022-10-06T08:54:48.022Z,20.13
2022-10-06T08:58:12.201Z,20.25
2022-10-06T09:01:19.830Z,21.02
2022-10-06T09:04:28.902Z,15.23
2022-10-06T09:07:54.092Z,14.93
2022-10-06T09:11:06.917Z,15.63
2022-10-06T09:14:24.548Z,14.85
2022-10-06T09:17:32.278Z,13.73
2022-10-06T09:20:38.699Z,14.97
2022-10-06T09:23:47.871Z,14.68
2022-10-06T09:26:51.034Z,16.80
2022-10-06T09:29:53.616Z,17.08
2022-10-06T09:33:01.477Z,21.58
2022-10-06T09:36:09.859Z,14.70
2022-10-06T09:39:22.260Z,17.08
2022-10-06T09:42:35.607Z,21.27
2022-10-06T09:45:38.174Z,16.48
2022-10-06T09:48:40.384Z,15.25
2022-10-06T09:51:58.623Z,16.10
2022-10-06T09:55:18.012Z,13.90
2022-10-06T09:58:24.757Z,13.50
2022-10-06T10:01:29.000Z,15.20
2022-10-06T10:04:35.877Z,16.77
2022-10-06T10:07:38.111Z,14.23
2022-10-06T10:10:40.939Z,14.30
2022-10-06T10:13:43.819Z,11.10
2022-10-06T10:16:52.339Z,13.38
2022-10-06T10:19:55.930Z,14.98
2022-10-06T10:23:19.979Z,13.13
2022-10-06T10:26:37.682Z,16.95
2022-10-06T10:30:01.873Z,13.27
2022-10-06T10:33:27.296Z,13.93
2022-10-06T10:36:35.122Z,17.73
2022-10-06T10:39:44.889Z,14.17
2022-10-06T10:42:54.941Z,10.07
2022-10-06T10:46:32.378Z,12.27
2022-10-06T10:49:35.853Z,14.63
2022-10-06T10:52:41.808Z,12.02
2022-10-06T10:55:47.352Z,13.07
2022-10-06T10:58:57.284Z,14.50
2022-10-06T11:02:20.238Z,18.17
2022-10-06T11:05:36.284Z,14.50
2022-10-06T11:09:00.601Z,19.98
2022-10-06T11:12:08.667Z,17.50
2022-10-06T11:15:32.974Z,14.88
2022-10-06T11:18:53.781Z,13.95
2022-10-06T11:22:01.348Z,12.63
2022-10-06T11:25:13.908Z,16.17
2022-10-06T11:28:23.485Z,15.50
2022-10-06T11:31:31.825Z,18.30
2022-10-06T11:34:34.090Z,15.35
2022-10-06T11:37:46.572Z,13.93
2022-10-06T11:41:18.550Z,21.58
2022-10-06T11:44:39.229Z,20.87
2022-10-06T11:48:07.903Z,16.33
2022-10-06T11:51:26.147Z,15.90
2022-10-06T11:54:40.646Z,17.67
2022-10-06T11:58:08.664Z,15.50
2022-10-06T12:01:36.339Z,17.20
2022-10-06T12:04:38.717Z,14.65
2022-10-06T12:07:56.025Z,15.45
2022-10-06T12:10:58.278Z,19.23
2022-10-06T12:15:12.121Z,13.80
2022-10-06T12:17:41.786Z,9.73
2022-10-06T12:20:59.788Z,15.15
2022-10-06T12:24:32.532Z,10.70
2022-10-06T12:27:49.296Z,17.08
2022-10-06T12:31:17.932Z,14.10
2022-10-06T12:34:42.314Z,13.50
2022-10-06T12:37:48.954Z,12.75
2022-10-06T12:40:57.981Z,18.20
2022-10-06T12:44:03.652Z,19.08
2022-10-06T12:47:16.111Z,11.68
2022-10-06T12:50:25.516Z,11.43
2022-10-06T12:53:33.441Z,14.15
2022-10-06T12:56:40.657Z,12.05
2022-10-06T12:59:43.004Z,15.70
2022-10-06T13:02:45.266Z,12.75
2022-10-06T13:05:52.636Z,16.43
2022-10-06T13:09:14.572Z,12.82
2022-10-06T13:12:19.545Z,14.07
2022-10-06T13:15:37.017Z,13.90
2022-10-06T13:18:39.353Z,12.77
2022-10-06T13:21:41.692Z,12.27
2022-10-06T13:24:43.985Z,14.35
2022-10-06T13:27:51.471Z,10.50
2022-10-06T13:30:54.849Z,10.57
2022-10-06T13:34:10.732Z,9.68
2022-10-06T13:37:14.766Z,11.27
2022-10-06T13:40:21.700Z,10.43
2022-10-06T13:43:30.465Z,10.68
2022-10-06T13:46:40.123Z,14.23
2022-10-06T13:50:02.484Z,17.77
2022-10-06T13:53:05.178Z,12.23
2022-10-06T13:59:38.747Z,9.52
2022-10-06T14:02:42.565Z,11.05
2022-10-06T14:05:46.049Z,11.00
2022-10-06T14:08:56.319Z,19.00
2022-10-06T14:12:04.445Z,11.18
2022-10-06T14:15:17.402Z,15.75
2022-10-06T14:18:23.268Z,12.73
2022-10-06T14:21:42.034Z,14.07
2022-10-06T14:24:51.152Z,11.00
2022-10-06T14:27:54.711Z,13.65
2022-10-06T14:30:57.570Z,11.73
2022-10-06T14:34:00.259Z,13.35
2022-10-06T14:37:02.585Z,10.60
2022-10-06T14:40:08.829Z,9.30
2022-10-06T14:43:14.193Z,8.68
2022-10-06T14:46:16.596Z,10.68
2022-10-06T14:49:19.622Z,9.77
2022-10-06T14:52:22.363Z,16.92
2022-10-06T14:55:30.416Z,9.20
2022-10-06T14:58:37.032Z,13.50
2022-10-06T15:01:40.743Z,11.23
2022-10-06T15:04:43.032Z,9.60
2022-10-06T15:08:04.239Z,14.15
2022-10-06T15:11:06.464Z,14.17
2022-10-06T15:14:09.467Z,12.98
2022-10-06T15:17:12.051Z,13.52
2022-10-06T15:20:14.594Z,16.17
2022-10-06T15:23:17.433Z,10.73
2022-10-06T15:26:38.345Z,15.07
2022-10-06T15:29:40.916Z,12.18
2022-10-06T15:32:43.305Z,9.43
2022-10-06T15:35:50.879Z,10.65
2022-10-06T15:38:54.547Z,16.67
2022-10-06T15:41:57.391Z,11.23
2022-10-06T15:45:02.820Z,14.13
2022-10-06T15:48:09.463Z,12.40
2022-10-06T15:51:11.764Z,12.95
2022-10-06T15:54:16.510Z,11.23
2022-10-06T15:57:21.314Z,15.97
2022-10-06T16:00:23.796Z,11.80
2022-10-06T16:03:40.222Z,18.10
2022-10-06T16:06:50.366Z,10.95
2022-10-06T16:09:53.057Z,13.27
2022-10-06T16:12:55.292Z,13.20
2022-10-06T16:15:57.841Z,13.48
2022-10-06T16:19:02.350Z,12.15
2022-10-06T16:22:06.161Z,16.48
2022-10-06T16:25:08.693Z,11.48
2022-10-06T16:28:11.058Z,12.53
2022-10-06T16:31:13.477Z,9.57
2022-10-06T16:34:16.466Z,15.40
2022-10-06T16:37:18.808Z,12.57
2022-10-06T16:40:23.081Z,10.25
2022-10-06T16:43:38.177Z,8.00
2022-10-06T16:46:40.728Z,8.93
2022-10-06T16:49:43.110Z,11.70
2022-10-06T16:52:45.345Z,13.55
2022-10-06T16:55:47.556Z,8.90
2022-10-06T16:59:00.365Z,8.73
2022-10-06T17:02:02.612Z,16.48
2022-10-06T17:05:05.296Z,9.80
2022-10-06T17:08:07.558Z,10.55
2022-10-06T17:11:15.930Z,8.48
2022-10-06T17:14:19.538Z,10.33
2022-10-06T17:17:21.796Z,7.72
2022-10-06T17:20:24.082Z,7.90
2022-10-06T17:23:27.333Z,10.43
2022-10-06T17:26:31.768Z,11.70
2022-10-06T17:29:34.020Z,12.27
2022-10-06T17:32:36.576Z,11.52
2022-10-06T17:35:38.878Z,14.20
2022-10-06T17:38:45.506Z,18.60
2022-10-06T17:41:49.321Z,14.38
2022-10-06T17:44:52.778Z,10.67
2022-10-06T17:47:55.017Z,11.85
2022-10-06T17:51:00.384Z,11.80
2022-10-06T17:54:05.136Z,13.75
2022-10-06T17:57:07.449Z,16.83
2022-10-06T18:00:10.417Z,12.63
2022-10-06T18:03:15.661Z,20.23
2022-10-06T18:06:19.789Z,16.52
2022-10-06T18:09:22.744Z,25.73
2022-10-06T18:12:25.073Z,29.50
2022-10-06T18:15:27.371Z,27.33
2022-10-06T18:18:30.423Z,23.98
2022-10-06T18:21:38.904Z,17.38
2022-10-06T18:24:41.416Z,21.90
2022-10-06T18:27:44.118Z,16.88
2022-10-06T18:30:50.562Z,23.27
2022-10-06T18:37:16.036Z,25.50
2022-10-06T18:40:18.378Z,18.90
2022-10-06T18:43:20.854Z,23.98
2022-10-06T18:46:41.814Z,20.70
2022-10-06T18:49:44.278Z,20.60
2022-10-06T18:52:46.506Z,19.00
2022-10-06T18:55:51.679Z,18.35
2022-10-06T18:58:53.973Z,18.27
2022-10-06T19:01:56.798Z,22.87
2022-10-06T19:04:59.187Z,21.10
2022-10-06T19:08:01.824Z,22.38
2022-10-06T19:11:26.679Z,20.30
2022-10-06T19:14:35.599Z,22.65
2022-10-06T19:17:41.149Z,21.00
2022-10-06T19:20:50.701Z,20.30
2022-10-06T19:23:52.956Z,21.48
2022-10-06T19:26:56.436Z,19.63
2022-10-06T19:29:58.893Z,21.67
2022-10-06T19:33:01.204Z,18.67
2022-10-06T19:36:04.136Z,18.02
2022-10-06T19:39:10.516Z,18.05
2022-10-06T19:42:33.492Z,18.95
2022-10-06T19:45:35.791Z,23.92
2022-10-06T19:48:38.176Z,21.47
2022-10-06T19:51:41.353Z,20.70
2022-10-06T19:54:43.698Z,21.40
2022-10-06T19:57:46.353Z,23.30
2022-10-06T20:00:49.058Z,24.88
2022-10-06T20:03:51.501Z,27.03
2022-10-06T20:06:53.982Z,21.73
2022-10-06T20:09:56.260Z,23.95
2022-10-06T20:12:58.775Z,27.92
2022-10-06T20:16:02.749Z,30.02
2022-10-06T20:19:07.736Z,25.40
2022-10-06T20:22:10.011Z,28.38
2022-10-06T20:25:12.303Z,30.92
2022-10-06T20:28:14.610Z,26.45
2022-10-06T20:31:19.859Z,29.65
2022-10-06T20:34:24.846Z,29.77
2022-10-06T20:37:27.464Z,39.88
2022-10-06T20:40:47.134Z,30.10
2022-10-06T20:43:49.918Z,40.00
2022-10-06T20:46:54.403Z,41.17
2022-10-06T20:49:56.738Z,40.43
2022-10-06T20:52:59.152Z,35.67
2022-10-06T20:56:01.688Z,42.30
2022-10-06T20:59:07.600Z,30.05
2022-10-06T21:02:10.738Z,36.35
2022-10-06T21:05:13.059Z,34.87
2022-10-06T21:08:15.369Z,38.90
2022-10-06T21:11:19.775Z,28.63
2022-10-06T21:14:22.048Z,38.05
2022-10-06T21:17:24.614Z,31.25
2022-10-06T21:20:26.862Z,31.60
2022-10-06T21:23:30.219Z,42.65
2022-10-06T21:26:33.735Z,37.97
2022-10-06T21:29:36.393Z,35.03
2022-10-06T21:32:38.663Z,28.52
2022-10-06T21:35:41.191Z,29.27
2022-10-06T21:38:45.615Z,39.53
2022-10-06T21:41:47.889Z,32.05
2022-10-06T21:44:50.297Z,28.77
2022-10-06T21:47:52.903Z,29.38
2022-10-06T21:50:55.444Z,29.90
2022-10-06T21:53:59.385Z,27.85
2022-10-06T21:57:01.985Z,25.48
2022-10-06T22:00:05.331Z,24.52
2022-10-06T22:03:15.175Z,26.05
2022-10-06T22:06:19.544Z,26.80
2022-10-06T22:09:22.195Z,25.10
2022-10-06T22:12:24.455Z,25.13
2022-10-06T22:15:26.757Z,22.85
2022-10-06T22:18:29.039Z,24.35
2022-10-06T22:21:33.389Z,23.93
2022-10-06T22:24:35.649Z,22.60
2022-10-06T22:27:37.858Z,18.73
2022-10-06T22:30:40.147Z,19.85
2022-10-06T22:33:44.300Z,18.17
2022-10-06T22:36:46.695Z,21.90
2022-10-06T22:39:48.978Z,23.65
2022-10-06T22:42:51.201Z,23.05
2022-10-06T22:45:53.686Z,24.40
2022-10-06T22:48:56.388Z,24.23
2022-10-06T22:51:58.641Z,22.43
2022-10-06T22:55:00.908Z,24.02
2022-10-06T22:58:03.207Z,19.10
2022-10-06T23:01:10.796Z,23.15
2022-10-06T23:04:13.150Z,22.88
2022-10-06T23:07:15.427Z,22.53
2022-10-06T23:10:19.043Z,25.67
2022-10-06T23:13:21.619Z,21.58
2022-10-06T23:16:24.106Z,24.65
2022-10-06T23:19:26.377Z,21.30
2022-10-06T23:22:28.615Z,27.17
2022-10-06T23:25:30.938Z,23.98
2022-10-06T23:28:33.651Z,24.58
2022-10-06T23:31:35.972Z,24.58
2022-10-06T23:34:38.221Z,24.70
2022-10-06T23:37:40.478Z,22.47
2022-10-06T23:40:42.793Z,20.85
2022-10-06T23:43:45.193Z,23.80
2022-10-06T23:46:47.487Z,21.95
2022-10-06T23:49:49.949Z,20.60
2022-10-06T23:52:52.156Z,25.47
2022-10-06T23:55:54.686Z,21.92
2022-10-06T23:58:57.149Z,26.25
